Decoded Metar for KPRO (PERRY MUNI in IA, USA) (IATA:N/A) | Meteo·Mobile Aviation Weather
aviador You're here:

KPRO Decoded Metar

PERRY MUNI in IA, USA
Report Time2018-12-14 07:35:00
UTC Time2018-12-14 07:58:48
Flight Rules ifr IFR
Wind360° at 09 kt
W.Decomp.*RWY 32: 7.1 kt HW 5.5 kt RCW
RWY 04: 6.7 kt HW 6 kt LCW
Visibility8047 m
Phenomena:Mist
Clouds:Overcast 005 Hf
Ceiling500 ft
Temp00°C (ISA -13)
Dew Point00°C (100% RH)
AAT-5.2°C
QNH1023 hPa
Density Alt-827 ft
Elevation1,010 ft
Report Wrong Elevation
Raw Report
KPRO 140735Z AUTO 36009KT 5SM BR OVC005 00/00 A3020 RMK AO2
T10021002=

Extra information for KPRO:More info

Metar Taf Metar & Taf Last 4 Metars F.Rules Stats Wind Profile Meteogram Temp Stats Airport Information Weather charts Add Link Nearby VenuesMetar ALERT Operation Metar Decoded Social comments

AIRNAV info for KPRO